Time;durP1;ratioP1;P1;durP2;ratioP2;P2;SDS_P1;SDS_P2;PMS_P1;PMS_P2;Temp;Humidity;BMP_temperature;BMP_pressure;BME280_temperature;BME280_humidity;BME280_pressure;Samples;Min_cycle;Max_cycle;Signal;HPM_P1;HPM_P2
2021/12/14 00:01:38;;;;;;;158.42;61.45;;;;;;;-2.85;69.49;98190.48;1685467;85;25806;-81
2021/12/14 00:04:25;;;;;;;162.40;68.57;;;;;;;-2.81;69.58;98193.76;1689497;84;25842;-81
2021/12/14 00:06:53;;;;;;;142.95;58.70;;;;;;;-2.75;69.70;98198.12;1697767;84;25784;-81
2021/12/14 00:09:27;;;;;;;129.30;56.10;;;;;;;-2.73;69.64;98192.25;1698433;84;25736;-80
2021/12/14 00:17:18;;;;;;;138.85;57.93;;;;;;;-2.69;69.69;98190.23;1698418;84;25733;-81
2021/12/14 00:19:45;;;;;;;133.07;58.02;;;;;;;-2.67;69.75;98190.50;1694931;84;25510;-81
2021/12/14 00:22:26;;;;;;;127.85;54.45;;;;;;;-2.64;69.82;98191.58;1698301;84;25793;-80
2021/12/14 00:24:47;;;;;;;126.07;55.95;;;;;;;-2.59;69.90;98190.78;1697071;84;27424;-80
2021/12/14 00:27:17;;;;;;;128.50;54.18;;;;;;;-2.55;69.92;98192.27;1698290;84;25776;-81
2021/12/14 00:29:47;;;;;;;125.87;55.40;;;;;;;-2.55;69.85;98190.09;1698245;84;25681;-81
2021/12/14 00:32:19;;;;;;;137.07;54.58;;;;;;;-2.52;69.73;98199.11;1698413;84;26057;-81
2021/12/14 00:34:51;;;;;;;133.67;55.20;;;;;;;-2.53;69.70;98197.41;1698535;84;25741;-81
2021/12/14 00:37:29;;;;;;;131.07;57.27;;;;;;;-2.49;69.79;98198.05;1670247;84;27413;-80
2021/12/14 00:39:58;;;;;;;139.18;56.65;;;;;;;-2.46;69.87;98196.03;1698315;84;26348;-80
2021/12/14 00:42:25;;;;;;;146.45;63.20;;;;;;;-2.40;69.94;98184.15;1698318;84;26064;-79
2021/12/14 00:44:52;;;;;;;136.18;58.42;;;;;;;-2.39;69.82;98189.81;1698413;84;26035;-80
2021/12/14 00:47:19;;;;;;;146.60;59.40;;;;;;;-2.37;69.91;98195.83;1698363;84;25766;-80
2021/12/14 00:49:47;;;;;;;154.35;61.73;;;;;;;-2.31;69.84;98191.44;1698374;84;27433;-80
2021/12/14 00:52:14;;;;;;;177.25;73.45;;;;;;;-2.29;69.91;98196.11;1698262;84;25705;-80
2021/12/14 00:54:41;;;;;;;211.97;86.78;;;;;;;-2.25;69.92;98194.94;1698397;84;25730;-80
2021/12/14 00:57:10;;;;;;;223.03;92.45;;;;;;;-2.38;69.79;98195.47;1698453;84;25915;-80
2021/12/14 00:59:36;;;;;;;207.70;82.37;;;;;;;-2.42;69.99;98188.73;1698336;84;25967;-80
2021/12/14 01:02:14;;;;;;;199.80;80.80;;;;;;;-2.42;70.12;98184.77;1698046;84;26897;-80
2021/12/14 01:04:49;;;;;;;219.95;85.30;;;;;;;-2.39;70.18;98187.16;1695000;84;25681;-80
2021/12/14 01:07:20;;;;;;;309.98;103.95;;;;;;;-2.36;70.32;98187.79;1690132;84;25717;-79
2021/12/14 01:09:51;;;;;;;179.40;68.75;;;;;;;-2.29;70.29;98188.17;1690845;84;25381;-80
2021/12/14 01:12:31;;;;;;;215.87;85.10;;;;;;;-2.23;70.39;98186.42;1690614;84;25683;-81
2021/12/14 01:15:24;;;;;;;204.97;88.58;;;;;;;-2.18;70.39;98189.58;1699045;83;28657;-80
2021/12/14 01:17:54;;;;;;;204.03;82.60;;;;;;;-2.15;70.43;98189.33;1687766;84;25846;-79
2021/12/14 01:20:13;;;;;;;187.35;79.80;;;;;;;-2.08;70.46;98187.09;1688236;84;25721;-81
2021/12/14 01:22:43;;;;;;;160.90;66.70;;;;;;;-2.04;70.43;98186.73;1690241;84;25789;-80
2021/12/14 01:25:22;;;;;;;138.80;58.58;;;;;;;-1.98;70.48;98186.29;1690201;84;25993;-81
2021/12/14 01:28:00;;;;;;;124.35;53.98;;;;;;;-1.93;70.43;98185.92;1679774;84;27177;-80
2021/12/14 01:31:04;;;;;;;128.27;55.67;;;;;;;-1.95;70.43;98176.81;1686018;84;25860;-80
2021/12/14 01:33:26;;;;;;;120.17;54.83;;;;;;;-1.90;70.52;98176.44;1689127;84;25729;-81
2021/12/14 01:35:54;;;;;;;124.27;53.63;;;;;;;-1.89;70.50;98169.72;1690605;84;25724;-80
2021/12/14 01:40:57;;;;;;;;;;;;;;;-1.81;70.48;98167.33;1693182;84;27538;-81
2021/12/14 01:43:32;;;;;;;131.65;55.95;;;;;;;-1.78;70.44;98163.61;1690379;84;25765;-80
2021/12/14 01:46:04;;;;;;;140.03;60.70;;;;;;;-1.84;70.37;98158.80;1690377;84;25721;-81
2021/12/14 01:48:31;;;;;;;149.77;65.85;;;;;;;-1.87;70.50;98159.86;1690506;83;25760;-81
2021/12/14 01:51:02;;;;;;;152.68;63.90;;;;;;;-1.83;70.65;98157.36;1690558;84;25778;-81
2021/12/14 01:53:30;;;;;;;149.97;65.87;;;;;;;-1.78;70.68;98160.12;1690818;84;27399;-81
2021/12/14 01:56:01;;;;;;;153.02;67.30;;;;;;;-1.73;70.77;98157.50;1690428;84;26435;-81
2021/12/14 01:58:36;;;;;;;158.72;69.40;;;;;;;-1.68;70.77;98163.75;1690524;84;25896;-81
2021/12/14 02:01:08;;;;;;;174.10;74.80;;;;;;;-1.63;70.78;98161.61;1689363;84;25750;-80
2021/12/14 02:03:40;;;;;;;165.12;69.72;;;;;;;-1.59;70.78;98159.09;1690841;84;25687;-81
2021/12/14 02:06:07;;;;;;;152.68;68.07;;;;;;;-1.60;70.71;98164.03;1697083;83;28164;-80
2021/12/14 02:08:36;;;;;;;140.52;60.20;;;;;;;-1.57;70.83;98169.09;1670080;84;25820;-80
2021/12/14 02:11:06;;;;;;;128.50;58.40;;;;;;;-1.51;70.85;98172.58;1698273;84;25784;-81
2021/12/14 02:13:38;;;;;;;127.38;53.90;;;;;;;-1.52;70.77;98170.89;1698573;84;26291;-81
2021/12/14 02:16:07;;;;;;;119.62;53.15;;;;;;;-1.50;70.84;98174.27;1698351;84;25652;-80
2021/12/14 02:18:34;;;;;;;112.85;53.58;;;;;;;-1.49;70.79;98169.34;1698445;84;27365;-81
2021/12/14 02:21:11;;;;;;;126.40;55.50;;;;;;;-1.52;70.83;98174.87;1698396;84;25743;-81
2021/12/14 02:23:42;;;;;;;128.57;58.05;;;;;;;-1.48;70.98;98177.66;1698466;84;25707;-81
2021/12/14 02:26:14;;;;;;;133.20;58.17;;;;;;;-1.43;70.97;98172.83;1698611;84;26513;-81
2021/12/14 02:28:41;;;;;;;120.50;55.90;;;;;;;-1.38;70.91;98176.45;1698103;84;25741;-80
2021/12/14 02:31:12;;;;;;;115.47;53.30;;;;;;;-1.38;70.90;98169.84;1698502;84;27450;-80
2021/12/14 02:33:42;;;;;;;129.15;54.05;;;;;;;-1.36;70.93;98164.79;1698614;84;25924;-81
2021/12/14 02:36:20;;;;;;;120.90;52.13;;;;;;;-1.37;70.89;98172.37;1698026;84;25898;-80
2021/12/14 02:38:53;;;;;;;111.92;52.85;;;;;;;-1.50;70.86;98168.50;1705671;83;26234;-81
2021/12/14 02:41:17;;;;;;;102.92;48.05;;;;;;;-1.52;71.13;98168.25;1701525;84;25552;-80
2021/12/14 02:43:49;;;;;;;100.87;47.53;;;;;;;-1.49;71.20;98168.02;1702298;84;28003;-80
2021/12/14 02:46:29;;;;;;;96.63;45.33;;;;;;;-1.45;71.21;98165.51;1702225;83;25958;-80
2021/12/14 02:49:01;;;;;;;94.67;43.92;;;;;;;-1.45;71.30;98162.34;1702266;84;26376;-80
2021/12/14 02:51:36;;;;;;;94.28;41.75;;;;;;;-1.42;71.39;98167.89;1676368;84;34736;-80
2021/12/14 02:54:08;;;;;;;92.72;44.15;;;;;;;-1.36;71.40;98159.97;1668626;85;25854;-81
2021/12/14 02:56:37;;;;;;;105.85;46.37;;;;;;;-1.32;71.41;98156.95;1674051;85;27446;-81
2021/12/14 02:59:09;;;;;;;110.72;49.63;;;;;;;-1.27;71.46;98157.45;1673854;85;25874;-80
2021/12/14 03:01:37;;;;;;;122.25;56.15;;;;;;;-1.23;71.49;98160.23;1673536;85;25860;-81
2021/12/14 03:04:07;;;;;;;137.30;59.55;;;;;;;-1.20;71.46;98158.64;1673911;85;26257;-81
2021/12/14 03:06:46;;;;;;;140.92;63.38;;;;;;;-1.21;71.38;98155.63;1684711;85;25814;-80
2021/12/14 03:09:31;;;;;;;145.70;64.00;;;;;;;-1.21;71.42;98159.60;1685876;85;28327;-81
2021/12/14 03:11:45;;;;;;;136.95;59.45;;;;;;;-1.31;71.41;98154.66;1702523;83;25768;-80
2021/12/14 03:14:12;;;;;;;131.82;58.33;;;;;;;-1.39;71.53;98163.70;1715236;83;25903;-81
2021/12/14 03:16:40;;;;;;;117.35;55.43;;;;;;;-1.34;71.72;98158.90;1714901;83;25736;-81
2021/12/14 03:19:08;;;;;;;116.22;53.17;;;;;;;-1.29;71.72;98154.06;1715153;83;25713;-80
2021/12/14 03:21:45;;;;;;;156.85;70.83;;;;;;;-1.28;71.71;98154.44;1715036;83;28236;-80
2021/12/14 03:24:13;;;;;;;132.65;59.95;;;;;;;-1.24;71.74;98161.19;1714379;83;25859;-80
2021/12/14 03:26:45;;;;;;;127.32;53.05;;;;;;;-1.19;71.77;98153.70;1715299;83;32760;-80
2021/12/14 03:29:17;;;;;;;112.52;50.95;;;;;;;-1.14;71.83;98159.50;1715347;83;26149;-81
2021/12/14 03:31:48;;;;;;;101.55;48.83;;;;;;;-1.09;71.73;98154.67;1714836;83;25713;-79
2021/12/14 03:34:19;;;;;;;92.45;43.95;;;;;;;-1.09;71.73;98162.61;1715096;83;27416;-80
2021/12/14 03:36:57;;;;;;;86.47;41.75;;;;;;;-1.04;71.75;98162.75;1715258;83;25701;-80
2021/12/14 03:39:34;;;;;;;87.37;42.17;;;;;;;-1.01;71.83;98169.14;1710791;83;25748;-80
2021/12/14 03:42:12;;;;;;;79.15;38.73;;;;;;;-0.96;71.79;98174.42;1714974;83;26319;-80
2021/12/14 03:44:47;;;;;;;75.10;37.00;;;;;;;-0.92;71.82;98172.37;1714890;83;25753;-80
2021/12/14 03:47:19;;;;;;;88.78;37.98;;;;;;;-0.90;71.73;98171.78;1715108;83;28177;-80
2021/12/14 03:49:56;;;;;;;78.47;37.33;;;;;;;-0.94;71.66;98171.66;1715177;83;34858;-80
2021/12/14 03:52:31;;;;;;;81.40;38.48;;;;;;;-0.94;71.76;98170.33;1715106;83;25761;-80
2021/12/14 03:55:02;;;;;;;87.72;42.30;;;;;;;-0.93;71.86;98170.69;1715108;83;25732;-80
2021/12/14 03:57:29;;;;;;;112.05;51.00;;;;;;;-0.95;71.84;98168.64;1715145;83;25725;-80
2021/12/14 03:59:56;;;;;;;120.67;53.85;;;;;;;-1.05;71.79;98166.36;1715196;83;27528;-80
2021/12/14 04:02:23;;;;;;;123.30;59.85;;;;;;;-1.11;71.92;98167.22;1714781;83;25701;-80
2021/12/14 04:05:03;;;;;;;131.37;63.08;;;;;;;-1.12;72.03;98169.50;1715043;83;25761;-80
2021/12/14 04:07:26;;;;;;;131.43;60.88;;;;;;;-1.05;72.11;98169.85;1713863;83;26184;-79
2021/12/14 04:09:53;;;;;;;122.02;57.58;;;;;;;-1.01;72.02;98169.98;1715074;83;25740;-80
2021/12/14 04:12:21;;;;;;;134.72;58.20;;;;;;;-1.01;71.95;98163.36;1715027;83;27462;-80
2021/12/14 04:14:56;;;;;;;125.30;59.25;;;;;;;-1.01;71.98;98170.47;1714967;83;25787;-79
2021/12/14 04:17:27;;;;;;;83.58;38.30;;;;;;;-1.04;72.05;98169.38;1714830;83;25878;-79
2021/12/14 04:19:54;;;;;;;58.83;28.52;;;;;;;-1.11;71.93;98161.08;1715254;83;25751;-80
2021/12/14 04:22:26;;;;;;;41.70;20.62;;;;;;;-1.12;72.01;98165.53;1715056;83;25740;-79
2021/12/14 04:24:57;;;;;;;45.20;20.50;;;;;;;-1.11;71.97;98164.57;1715290;83;28042;-80
2021/12/14 04:27:29;;;;;;;40.70;21.77;;;;;;;-1.07;71.92;98166.95;1714546;83;26671;-80
2021/12/14 04:29:56;;;;;;;39.53;20.43;;;;;;;-1.05;71.96;98162.38;1715114;83;25732;-80
2021/12/14 04:32:23;;;;;;;42.23;20.82;;;;;;;-1.05;71.95;98158.41;1688417;83;26495;-80
2021/12/14 04:34:54;;;;;;;39.75;19.07;;;;;;;-1.03;71.99;98151.19;1715086;83;25678;-80
2021/12/14 04:37:21;;;;;;;35.23;18.00;;;;;;;-1.02;71.96;98148.90;1715223;83;27363;-80
2021/12/14 04:39:56;;;;;;;33.95;17.90;;;;;;;-1.01;71.95;98150.59;1714920;83;25778;-80
2021/12/14 04:53:45;;;;;;;30.52;15.75;;;;;;;-0.94;71.93;98147.80;1714527;83;25331;-80
2021/12/14 04:56:17;;;;;;;29.55;15.98;;;;;;;-0.92;71.93;98143.23;1714797;83;25792;-80
2021/12/14 04:58:49;;;;;;;41.28;20.37;;;;;;;-0.93;71.91;98149.48;1714506;83;26541;-80
2021/12/14 05:01:17;;;;;;;43.60;21.17;;;;;;;-0.92;71.92;98152.50;1688591;83;25791;-80
2021/12/14 05:03:55;;;;;;;40.23;19.75;;;;;;;-0.93;71.95;98149.48;1715019;83;27643;-81
2021/12/14 05:06:25;;;;;;;43.30;21.70;;;;;;;-0.94;72.01;98145.15;1714794;83;25717;-79
2021/12/14 05:11:43;;;;;;;47.62;22.70;;;;;;;-0.96;71.96;98142.62;1692221;83;25800;-80
2021/12/14 05:14:11;;;;;;;46.23;22.10;;;;;;;-0.96;72.02;98146.59;1715086;83;25697;-80
2021/12/14 05:16:39;;;;;;;41.05;21.00;;;;;;;-0.91;72.04;98146.23;1714768;83;27450;-80
2021/12/14 05:19:10;;;;;;;53.13;25.17;;;;;;;-0.88;72.01;98151.30;1714911;83;25808;-80
2021/12/14 05:21:44;;;;;;;44.73;22.60;;;;;;;-0.89;71.97;98149.14;1715032;83;25736;-80
2021/12/14 05:24:15;;;;;;;63.17;25.57;;;;;;;-0.91;71.92;98146.23;1715043;83;25765;-80
2021/12/14 05:26:44;;;;;;;62.70;23.77;;;;;;;-0.88;71.95;98153.95;1715018;83;25697;-80
2021/12/14 05:29:12;;;;;;;51.85;22.50;;;;;;;-0.85;71.97;98152.39;1714985;83;27395;-80
2021/12/14 05:31:48;;;;;;;53.35;22.10;;;;;;;-0.79;71.97;98159.36;1714939;83;25717;-80
2021/12/14 05:34:16;;;;;;;48.83;24.00;;;;;;;-0.76;71.97;98161.77;1714982;83;25851;-80
2021/12/14 05:36:44;;;;;;;66.82;29.48;;;;;;;-0.74;72.07;98160.33;1714960;83;26352;-80
2021/12/14 05:44:44;;;;;;;77.40;34.50;;;;;;;-0.69;72.16;98169.22;1714961;83;26557;-80
2021/12/14 05:47:16;;;;;;;70.47;33.30;;;;;;;-0.68;72.13;98162.48;1714820;83;25766;-80
2021/12/14 05:49:46;;;;;;;83.52;36.58;;;;;;;-0.68;72.15;98159.83;1715240;83;25731;-80
2021/12/14 05:52:23;;;;;;;77.35;35.78;;;;;;;-0.63;72.23;98170.07;1715043;83;25824;-80
2021/12/14 05:54:50;;;;;;;84.95;37.33;;;;;;;-0.62;72.18;98179.23;1715101;83;28358;-80
2021/12/14 05:57:21;;;;;;;81.45;34.70;;;;;;;-0.68;72.18;98174.41;1714849;83;26254;-80
2021/12/14 05:59:48;;;;;;;85.12;39.88;;;;;;;-0.67;72.19;98180.08;1715067;83;25816;-80
2021/12/14 06:02:15;;;;;;;87.10;39.45;;;;;;;-0.66;72.28;98179.11;1714994;83;26475;-80
2021/12/14 06:04:52;;;;;;;82.25;37.42;;;;;;;-0.66;72.24;98173.80;1715091;83;25700;-80
2021/12/14 06:07:20;;;;;;;46.10;23.32;;;;;;;-0.68;72.18;98179.71;1705058;83;28197;-80
2021/12/14 06:09:50;;;;;;;39.25;19.90;;;;;;;-0.70;72.09;98184.29;1701754;84;25926;-80
2021/12/14 06:12:28;;;;;;;41.65;20.82;;;;;;;-0.72;72.00;98176.45;1701536;84;25271;-80
2021/12/14 06:14:59;;;;;;;35.85;17.57;;;;;;;-0.73;71.93;98173.95;1700540;83;26364;-80
2021/12/14 06:17:33;;;;;;;29.98;17.42;;;;;;;-0.74;71.93;98173.59;1702058;84;25788;-80
2021/12/14 06:20:05;;;;;;;34.80;17.62;;;;;;;-0.74;71.87;98171.78;1719342;83;27450;-81
2021/12/14 06:22:32;;;;;;;45.38;20.02;;;;;;;-0.75;71.80;98178.53;1719719;83;31510;-80
2021/12/14 06:25:04;;;;;;;64.65;26.40;;;;;;;-0.77;71.81;98181.30;1719580;83;25744;-80
2021/12/14 06:27:32;;;;;;;70.17;26.60;;;;;;;-0.75;71.81;98183.83;1719832;83;25787;-80
2021/12/14 06:30:07;;;;;;;80.40;32.05;;;;;;;-0.78;71.62;98186.72;1719674;83;25797;-79
2021/12/14 06:32:53;;;;;;;82.05;34.48;;;;;;;-0.89;71.37;98184.08;1719637;83;27633;-80
2021/12/14 06:35:27;;;;;;;85.72;39.25;;;;;;;-0.96;71.36;98178.39;1719584;83;25771;-80
2021/12/14 06:38:29;;;;;;;86.10;35.88;;;;;;;-1.00;71.38;98176.12;1719622;83;25730;-80
2021/12/14 06:40:59;;;;;;;;;;;;;;;-1.00;71.34;98181.42;1722275;83;25769;-80
2021/12/14 06:43:49;;;;;;;77.47;31.27;;;;;;;-1.04;71.23;98178.64;1719742;83;26372;-80
2021/12/14 06:46:36;;;;;;;75.87;29.07;;;;;;;-1.11;71.21;98177.81;1719620;83;27464;-80
2021/12/14 06:49:12;;;;;;;79.70;31.62;;;;;;;-1.13;71.23;98175.77;1719431;83;25279;-80
2021/12/14 06:51:47;;;;;;;76.92;32.88;;;;;;;-1.14;71.24;98177.20;1718811;83;26340;-80
2021/12/14 06:54:19;;;;;;;74.67;33.70;;;;;;;-1.15;71.22;98175.03;1719661;83;26338;-80
2021/12/14 06:56:53;;;;;;;57.45;26.42;;;;;;;-1.19;71.23;98172.73;1719844;83;25789;-80
2021/12/14 06:59:23;;;;;;;82.08;36.45;;;;;;;-1.23;71.20;98177.45;1719709;83;27397;-80
2021/12/14 07:02:00;;;;;;;89.87;37.00;;;;;;;-1.28;71.23;98177.42;1719445;83;25928;-80
2021/12/14 07:04:34;;;;;;;84.95;36.90;;;;;;;-1.31;71.25;98177.17;1719838;83;25741;-81
2021/12/14 07:07:08;;;;;;;93.40;38.95;;;;;;;-1.33;71.20;98175.64;1719332;82;25770;-80
2021/12/14 07:09:40;;;;;;;105.40;46.37;;;;;;;-1.35;71.27;98179.72;1719776;83;26252;-81
2021/12/14 07:12:13;;;;;;;113.00;50.58;;;;;;;-1.36;71.27;98186.45;1718562;83;28235;-80
2021/12/14 07:14:53;;;;;;;;;;;;;;;-1.34;71.33;98190.68;1722242;83;25757;-81
2021/12/14 07:17:27;;;;;;;117.62;53.25;;;;;;;-1.35;71.31;98194.29;1719774;83;25794;-81
2021/12/14 07:20:01;;;;;;;91.28;42.80;;;;;;;-1.39;71.30;98190.17;1719759;83;26446;-81
2021/12/14 07:22:48;;;;;;;93.27;42.65;;;;;;;-1.39;71.33;98188.01;1696823;84;25691;-80
2021/12/14 07:25:26;;;;;;;88.35;39.45;;;;;;;-1.32;71.44;98196.67;1702098;84;28024;-80
2021/12/14 07:27:57;;;;;;;84.83;36.35;;;;;;;-1.31;71.50;98194.39;1719705;83;25763;-80
2021/12/14 07:30:32;;;;;;;84.35;37.63;;;;;;;-1.36;71.50;98188.63;1719537;83;25725;-80
2021/12/14 07:33:18;;;;;;;76.87;35.50;;;;;;;-1.40;71.48;98184.52;1719323;83;25768;-79
2021/12/14 07:36:10;;;;;;;84.32;35.80;;;;;;;-1.42;71.54;98183.78;1719782;83;25771;-80
2021/12/14 07:38:47;;;;;;;78.65;34.43;;;;;;;-1.41;71.57;98179.33;1719852;83;27310;-80
2021/12/14 07:41:37;;;;;;;73.25;36.93;;;;;;;-1.40;71.73;98177.05;1718852;83;25784;-80
2021/12/14 07:44:23;;;;;;;77.25;37.67;;;;;;;-1.36;71.85;98172.73;1701043;84;25734;-81
2021/12/14 07:46:55;;;;;;;67.30;32.78;;;;;;;-1.31;71.93;98175.85;1702091;84;25979;-80
2021/12/14 07:49:27;;;;;;;67.30;32.33;;;;;;;-1.22;72.06;98180.94;1702285;84;25788;-80
2021/12/14 07:52:04;;;;;;;77.62;36.83;;;;;;;-1.18;72.07;98176.59;1702101;84;27490;-80
2021/12/14 07:54:36;;;;;;;106.95;45.70;;;;;;;-1.16;72.08;98170.70;1714150;82;25768;-80
2021/12/14 07:57:13;;;;;;;115.28;50.33;;;;;;;-1.16;72.12;98169.38;1701183;84;25772;-81
2021/12/14 07:59:45;;;;;;;119.80;54.20;;;;;;;-1.19;72.17;98166.11;1701624;84;25715;-80
2021/12/14 08:02:34;;;;;;;129.85;56.98;;;;;;;-1.16;72.24;98168.05;1702128;84;25778;-80
2021/12/14 08:05:15;;;;;;;126.58;53.70;;;;;;;-1.09;72.28;98165.78;1702134;84;28367;-81
2021/12/14 08:07:49;;;;;;;122.80;54.93;;;;;;;-1.05;72.35;98163.70;1701839;83;25217;-80
2021/12/14 08:10:24;;;;;;;106.30;54.38;;;;;;;-1.00;72.30;98169.50;1701847;84;25779;-80
2021/12/14 08:13:02;;;;;;;111.47;54.75;;;;;;;-1.02;72.24;98170.09;1702135;84;25944;-80
2021/12/14 08:15:58;;;;;;;127.45;58.58;;;;;;;-0.98;72.26;98168.91;1698458;84;25690;-80
2021/12/14 08:18:29;;;;;;;117.62;59.60;;;;;;;-0.93;72.24;98166.72;1702062;84;27455;-81
2021/12/14 08:21:11;;;;;;;107.30;49.98;;;;;;;-0.92;72.18;98172.37;1719608;83;25784;-81
2021/12/14 08:23:58;;;;;;;101.72;47.80;;;;;;;-0.91;72.26;98176.72;1719834;83;25815;-81
2021/12/14 08:26:36;;;;;;;63.60;30.08;;;;;;;-0.83;72.44;98170.31;1718116;83;26729;-80
2021/12/14 08:29:17;;;;;;;48.00;23.50;;;;;;;-0.75;72.59;98165.27;1694402;83;25792;-81
2021/12/14 08:32:07;;;;;;;44.48;22.45;;;;;;;-0.67;72.71;98170.80;1690064;84;27484;-80
2021/12/14 08:34:41;;;;;;;31.75;14.78;;;;;;;-0.60;72.79;98166.67;1690642;84;25762;-81
2021/12/14 08:37:22;;;;;;;25.15;12.63;;;;;;;-0.56;72.81;98172.58;1690731;84;25304;-81
2021/12/14 08:40:01;;;;;;;27.42;13.28;;;;;;;-0.63;72.93;98171.40;1690477;84;26452;-80
2021/12/14 08:42:37;;;;;;;23.90;13.22;;;;;;;-0.64;73.21;98173.20;1690484;83;25762;-81
2021/12/14 08:45:24;;;;;;;27.40;13.55;;;;;;;-0.61;73.31;98174.30;1690008;84;27588;-81
2021/12/14 08:47:41;;;;;;;25.65;13.65;;;;;;;-0.55;73.45;98172.94;1686885;84;26255;-80
2021/12/14 08:50:12;;;;;;;30.02;15.10;;;;;;;-0.51;73.48;98167.77;1690775;84;25779;-80
2021/12/14 08:52:41;;;;;;;37.48;16.48;;;;;;;-0.48;73.50;98164.36;1690714;84;25975;-80
2021/12/14 08:55:12;;;;;;;31.50;16.07;;;;;;;-0.42;73.58;98174.48;1690699;84;25749;-80
2021/12/14 08:57:41;;;;;;;32.93;16.12;;;;;;;-0.37;73.59;98173.64;1690761;84;27392;-80
2021/12/14 09:00:14;;;;;;;33.25;16.37;;;;;;;-0.28;73.66;98165.89;1690658;84;26098;-80
2021/12/14 09:02:41;;;;;;;32.10;16.55;;;;;;;-0.20;73.68;98167.42;1689437;84;25828;-81
2021/12/14 09:05:13;;;;;;;44.08;19.73;;;;;;;-0.20;73.56;98160.79;1690777;84;25750;-80
2021/12/14 09:07:40;;;;;;;50.90;22.10;;;;;;;-0.19;73.55;98159.83;1684526;84;32970;-80
2021/12/14 09:10:12;;;;;;;59.75;24.05;;;;;;;-0.14;73.63;98160.30;1680536;85;28086;-81
2021/12/14 09:12:43;;;;;;;56.73;24.67;;;;;;;-0.08;73.69;98153.14;1680711;85;25923;-80
2021/12/14 09:15:23;;;;;;;50.60;22.02;;;;;;;0.00;73.66;98145.41;1680851;85;26034;-80
2021/12/14 09:17:51;;;;;;;43.40;22.40;;;;;;;0.03;73.60;98150.44;1680966;85;25720;-80
2021/12/14 09:20:32;;;;;;;47.62;23.83;;;;;;;0.05;73.46;98141.87;1680859;85;25734;-80
2021/12/14 09:23:04;;;;;;;47.62;24.10;;;;;;;0.05;73.39;98140.54;1680252;85;28108;-81
2021/12/14 09:25:31;;;;;;;50.60;24.02;;;;;;;0.07;73.41;98137.28;1680037;85;31388;-80
2021/12/14 09:28:01;;;;;;;47.48;24.55;;;;;;;0.10;73.50;98142.34;1680798;84;25721;-80
2021/12/14 09:30:33;;;;;;;69.12;31.25;;;;;;;0.10;73.44;98141.02;1680835;85;26359;-80
2021/12/14 09:33:00;;;;;;;43.85;24.12;;;;;;;0.12;73.46;98135.06;1680906;85;25725;-81
2021/12/14 09:35:31;;;;;;;44.42;23.12;;;;;;;0.15;73.46;98131.31;1680830;85;27460;-80
2021/12/14 09:37:58;;;;;;;49.08;24.35;;;;;;;0.20;73.38;98129.97;1680864;85;25844;-80
2021/12/14 09:40:32;;;;;;;48.87;26.55;;;;;;;0.22;73.33;98132.02;1680815;85;25797;-81
2021/12/14 09:42:59;;;;;;;53.52;26.33;;;;;;;0.31;73.29;98134.37;1654073;85;55659;-81
2021/12/14 09:45:34;;;;;;;57.27;29.15;;;;;;;0.33;73.12;98133.28;1680550;85;25716;-81
2021/12/14 09:48:05;;;;;;;55.70;29.70;;;;;;;0.31;73.15;98125.92;1680405;85;27384;-80
2021/12/14 09:50:35;;;;;;;49.50;25.43;;;;;;;0.35;73.20;98123.38;1680479;85;25798;-80
2021/12/14 09:53:07;;;;;;;51.53;26.42;;;;;;;0.43;73.22;98117.88;1679298;83;26384;-81
2021/12/14 09:55:38;;;;;;;59.30;28.45;;;;;;;0.46;73.13;98108.34;1709546;83;25788;-81
2021/12/14 09:58:10;;;;;;;54.97;28.47;;;;;;;0.49;73.08;98107.56;1709648;83;25740;-81
2021/12/14 10:00:51;;;;;;;57.93;29.70;;;;;;;0.60;73.17;98104.02;1708887;83;28419;-80
2021/12/14 10:03:18;;;;;;;56.48;28.15;;;;;;;0.77;73.14;98098.55;1709360;83;25789;-80
2021/12/14 10:05:53;;;;;;;47.08;25.00;;;;;;;0.89;72.92;98093.00;1709409;83;25654;-81
2021/12/14 10:08:25;;;;;;;47.53;24.18;;;;;;;1.05;72.93;98087.19;1708493;82;25763;-80
2021/12/14 10:11:04;;;;;;;54.18;27.00;;;;;;;1.12;72.66;98083.48;1709615;83;25504;-80
2021/12/14 10:13:32;;;;;;;50.00;27.60;;;;;;;1.20;72.58;98083.67;1708986;83;27394;-80
2021/12/14 10:16:00;;;;;;;43.65;23.98;;;;;;;1.38;72.55;98086.00;1709238;83;25845;-80
2021/12/14 10:18:35;;;;;;;43.52;22.90;;;;;;;1.51;72.31;98085.25;1709358;83;25674;-80
2021/12/14 10:21:09;;;;;;;41.58;22.62;;;;;;;1.62;72.13;98085.12;1709392;83;26629;-81
2021/12/14 10:23:38;;;;;;;48.30;26.07;;;;;;;1.61;71.81;98065.30;1709518;83;26243;-80
2021/12/14 10:26:06;;;;;;;42.67;22.70;;;;;;;1.62;71.86;98068.31;1709329;83;27423;-80
2021/12/14 10:28:36;;;;;;;54.93;28.45;;;;;;;1.86;72.02;98067.41;1709208;83;25284;-81
2021/12/14 10:31:08;;;;;;;49.25;25.20;;;;;;;2.18;71.72;98064.41;1709319;83;25820;-81
2021/12/14 10:33:36;;;;;;;59.25;32.98;;;;;;;2.45;71.59;98064.99;1708124;83;27907;-80
2021/12/14 10:36:16;;;;;;;49.05;28.00;;;;;;;2.76;71.20;98069.61;1709539;83;25814;-81
2021/12/14 10:39:01;;;;;;;47.20;25.75;;;;;;;3.00;71.12;98067.26;1707969;83;28127;-80
2021/12/14 10:43:57;;;;;;;41.02;23.02;;;;;;;3.68;70.57;98053.47;1709229;83;26356;-80
2021/12/14 10:46:45;;;;;;;41.58;23.77;;;;;;;3.89;69.71;98056.17;1709188;83;25752;-81
2021/12/14 10:49:09;;;;;;;47.48;24.30;;;;;;;4.04;69.17;98059.64;1708214;83;25805;-81
2021/12/14 10:51:41;;;;;;;43.23;25.52;;;;;;;4.31;69.43;98053.69;1709151;83;27361;-81
2021/12/14 10:54:12;;;;;;;36.60;21.15;;;;;;;4.49;68.53;98052.28;1709314;83;25801;-81
2021/12/14 10:56:56;;;;;;;37.55;21.12;;;;;;;4.64;67.87;98049.37;1709736;83;25756;-81
2021/12/14 10:59:28;;;;;;;37.95;21.82;;;;;;;4.82;67.85;98050.66;1708125;83;26306;-81
2021/12/14 11:01:55;;;;;;;29.82;17.65;;;;;;;5.07;67.79;98054.28;1709470;83;25754;-81
2021/12/14 11:04:38;;;;;;;46.13;27.58;;;;;;;5.35;67.32;98040.98;1709488;83;28137;-81
2021/12/14 11:07:05;;;;;;;49.48;29.55;;;;;;;5.49;66.93;98044.87;1708677;83;25974;-81
2021/12/14 11:09:43;;;;;;;55.63;30.37;;;;;;;5.60;66.05;98051.75;1708649;83;25747;-81
2021/12/14 11:12:24;;;;;;;42.30;25.40;;;;;;;5.75;66.18;98044.75;1709265;83;26409;-81
2021/12/14 11:14:56;;;;;;;76.55;36.30;;;;;;;5.92;65.74;98042.94;1709101;83;25692;-81
2021/12/14 11:20:32;;;;;;;39.27;24.92;;;;;;;6.13;65.20;98036.60;1708866;83;25741;-81
2021/12/14 11:23:28;;;;;;;41.00;24.57;;;;;;;6.38;65.07;98044.13;1702259;83;25760;-80
2021/12/14 11:26:12;;;;;;;35.68;21.10;;;;;;;6.58;64.37;98042.74;1685335;83;26360;-80
2021/12/14 11:28:50;;;;;;;37.98;23.10;;;;;;;6.61;64.05;98031.68;1709468;83;25959;-81
2021/12/14 11:31:34;;;;;;;43.30;26.55;;;;;;;6.64;63.21;98031.84;1709529;83;28553;-81
2021/12/14 11:34:09;;;;;;;57.55;29.37;;;;;;;6.39;62.75;98031.05;1708652;83;25291;-81
2021/12/14 11:36:47;;;;;;;53.78;30.80;;;;;;;6.14;62.78;98021.69;1709558;83;25760;-81
2021/12/14 11:39:24;;;;;;;50.67;28.23;;;;;;;5.93;62.67;98021.84;1708570;83;25846;-81
2021/12/14 11:41:55;;;;;;;59.38;31.85;;;;;;;5.83;62.74;98026.00;1708827;83;25295;-81
2021/12/14 11:44:36;;;;;;;60.52;31.37;;;;;;;5.88;62.99;98025.04;1709446;83;27425;-81
2021/12/14 11:49:57;;;;;;;53.73;30.48;;;;;;;5.99;62.73;98018.00;1709482;83;25737;-82
2021/12/14 11:52:51;;;;;;;58.28;32.40;;;;;;;5.94;62.15;98020.33;1709574;83;26407;-81
2021/12/14 11:55:43;;;;;;;48.70;28.15;;;;;;;5.97;62.44;98013.31;1709399;83;25825;-82
2021/12/14 11:58:40;;;;;;;53.33;30.55;;;;;;;6.10;62.66;98008.28;1709571;83;28436;-82
2021/12/14 12:01:20;;;;;;;54.20;30.40;;;;;;;6.14;62.17;98009.63;1709343;83;25729;-82
2021/12/14 12:03:56;;;;;;;49.88;29.02;;;;;;;6.22;62.00;98008.77;1709530;83;25746;-82
2021/12/14 12:09:32;;;;;;;51.00;20.23;;;;;;;6.10;61.73;98005.60;1715926;83;25857;-81
2021/12/14 12:12:26;;;;;;;43.42;25.02;;;;;;;6.06;61.68;98006.94;1719431;83;27453;-81
2021/12/14 12:15:01;;;;;;;44.53;26.05;;;;;;;6.01;61.02;97997.74;1719726;83;25678;-81
2021/12/14 12:17:50;;;;;;;57.40;30.70;;;;;;;5.79;61.32;98000.56;1719459;83;25316;-82
2021/12/14 12:20:33;;;;;;;55.15;29.07;;;;;;;5.79;61.46;98001.91;1719394;83;25680;-82
2021/12/14 12:23:14;;;;;;;59.63;31.65;;;;;;;5.77;61.43;97994.53;1719500;83;25796;-82
2021/12/14 12:26:01;;;;;;;59.05;31.23;;;;;;;5.75;61.58;97993.35;1719335;83;26834;-82